This is the latest recevied weather packets stored in our database for station/object IW2HNF-3. If no packets are shown the sender has not sent any weather packets the latest 10 day(s).
| Time | Temp. | Humidity | Pressure | Rain* | Wind** | Luminosity | Snow |
|---|---|---|---|---|---|---|---|
| 1777830662 | 21.11° C | 34% | 1015.3 hPa | 0 mm | - | - | - |
| 1777830040 | 21.11° C | 34% | 1015.3 hPa | 0 mm | - | - | - |
| 1777829462 | 21.11° C | 33% | 1015.3 hPa | 0 mm | - | - | - |
| 1777828838 | 21.11° C | 33% | 1015.3 hPa | 0 mm | - | - | - |
| 1777828263 | 21.11° C | 33% | 1015.3 hPa | 0 mm | - | - | - |
| 1777827638 | 21.67° C | 33% | 1015.3 hPa | 0 mm | - | - | - |
| 1777827063 | 21.67° C | 32% | 1015.4 hPa | 0 mm | - | - | - |
| 1777826438 | 21.67° C | 32% | 1015.5 hPa | 0 mm | - | - | - |
| 1777825864 | 21.67° C | 30% | 1015.5 hPa | 0 mm | - | - | - |
| 1777825239 | 21.67° C | 28% | 1015.6 hPa | 0 mm | - | - | - |
| 1777824663 | 22.22° C | 30% | 1015.7 hPa | 0 mm | - | - | - |
| 1777824471 | 22.22° C | 27% | 1015.8 hPa | 0 mm | - | - | - |
| 1777823464 | 22.22° C | 28% | 1015.8 hPa | 0 mm | - | - | - |
| 1777822839 | 22.22° C | 28% | 1015.9 hPa | 0 mm | - | - | - |
| 1777822262 | 22.22° C | 28% | 1015.9 hPa | 0 mm | - | - | - |
| 1777821639 | 22.22° C | 27% | 1016 hPa | 0 mm | - | - | - |
| 1777821063 | 22.22° C | 27% | 1016 hPa | 0 mm | - | - | - |
| 1777820438 | 22.22° C | 27% | 1016.2 hPa | 0 mm | - | - | - |
| 1777819863 | 22.22° C | 26% | 1016.4 hPa | 0 mm | - | - | - |
| 1777819239 | 22.22° C | 25% | 1016.5 hPa | 0 mm | - | - | - |
| 1777818663 | 22.22° C | 25% | 1016.6 hPa | 0 mm | - | - | - |
| 1777818038 | 22.22° C | 26% | 1016.7 hPa | 0 mm | - | - | - |
| 1777817463 | 21.67° C | 25% | 1016.8 hPa | 0 mm | - | - | - |
| 1777817270 | 21.67° C | 23% | 1016.9 hPa | 0 mm | - | - | - |
| 1777812663 | 21.67° C | 32% | 1017.7 hPa | 0 mm | - | - | - |
* Rain latest hour (hover to see other rain measurements)
** Current wind speed in m/s (hover to see current wind gust speed)